WAT4064 EGKK-LIPX
Flight info
| Callsign | WAT4064 |
|---|---|
| Flight time | 1h 38m |
| Altitude | 35000 |
| Route | SFD Y47 BENBO UL612 VEULE DCT TEPRI UN491 POGZI DCT GELTA DCT LUVAL DCT SHARA DCT DEVDI DCT RIPUS DCT GERSA DCT SOSON DCT ODINA DCT LEGLO/N0385F180 L615 OSKOR/N0390F190 L615 NEVNI |
| Aircraft | A320/M-SDE3FGHIRWY/LB1 |
Departure
| Time | 2026-05-05 17:15 |
|---|---|
| Airport | London Gatwick Airport (EGKK) |
Arrival
| Time | 2026-05-05 18:53 |
|---|---|
| Airport | Verona Villafranca Valerio Catullo Airport (LIPX) |
| Time | Latitude | Longitude | Altitude | Speed | Heading |
|---|---|---|---|---|---|
| 2026-05-05 16:49 | 51.15432 | -0.17703 | 211 ft | 0 kts | 167° |
| 2026-05-05 16:49 | 51.15431 | -0.17703 | 212 ft | 0 kts | 167° |
| 2026-05-05 16:52 | 51.15432 | -0.17703 | 211 ft | 0 kts | 167° |
| 2026-05-05 17:03 | 51.15434 | -0.17704 | 217 ft | 2 kts | 167° |
| 2026-05-05 17:03 | 51.15451 | -0.17710 | 207 ft | 2 kts | 167° |
| 2026-05-05 17:03 | 51.15468 | -0.17716 | 214 ft | 2 kts | 167° |
| 2026-05-05 17:04 | 51.15485 | -0.17722 | 213 ft | 2 kts | 169° |
| 2026-05-05 17:04 | 51.15501 | -0.17718 | 212 ft | 2 kts | 242° |
| 2026-05-05 17:04 | 51.15503 | -0.17710 | 210 ft | 0 kts | 259° |
| 2026-05-05 17:06 | 51.15503 | -0.17751 | 213 ft | 10 kts | 272° |
| 2026-05-05 17:07 | 51.15490 | -0.17868 | 205 ft | 10 kts | 257° |
| 2026-05-05 17:07 | 51.15475 | -0.17983 | 212 ft | 13 kts | 257° |
| 2026-05-05 17:07 | 51.15454 | -0.18136 | 211 ft | 14 kts | 258° |
| 2026-05-05 17:07 | 51.15430 | -0.18264 | 213 ft | 10 kts | 233° |
| 2026-05-05 17:08 | 51.15370 | -0.18274 | 212 ft | 8 kts | 169° |
| 2026-05-05 17:08 | 51.15319 | -0.18257 | 205 ft | 7 kts | 167° |
| 2026-05-05 17:08 | 51.15265 | -0.18239 | 205 ft | 8 kts | 167° |
| 2026-05-05 17:08 | 51.15205 | -0.18222 | 208 ft | 8 kts | 188° |
| 2026-05-05 17:09 | 51.15184 | -0.18299 | 210 ft | 8 kts | 265° |
| 2026-05-05 17:09 | 51.15174 | -0.18422 | 205 ft | 14 kts | 258° |
| 2026-05-05 17:09 | 51.15153 | -0.18573 | 210 ft | 13 kts | 257° |
| 2026-05-05 17:09 | 51.15134 | -0.18718 | 205 ft | 15 kts | 257° |
| 2026-05-05 17:10 | 51.15109 | -0.18894 | 210 ft | 17 kts | 257° |
| 2026-05-05 17:10 | 51.15086 | -0.19067 | 215 ft | 17 kts | 257° |
| 2026-05-05 17:10 | 51.15054 | -0.19299 | 210 ft | 25 kts | 258° |
| 2026-05-05 17:10 | 51.15013 | -0.19596 | 215 ft | 29 kts | 257° |
| 2026-05-05 17:11 | 51.14970 | -0.19911 | 209 ft | 30 kts | 258° |
| 2026-05-05 17:11 | 51.14924 | -0.20240 | 209 ft | 31 kts | 257° |
| 2026-05-05 17:11 | 51.14877 | -0.20572 | 207 ft | 28 kts | 258° |
| 2026-05-05 17:11 | 51.14838 | -0.20862 | 214 ft | 27 kts | 257° |
| 2026-05-05 17:12 | 51.14797 | -0.21140 | 216 ft | 16 kts | 247° |
| 2026-05-05 17:12 | 51.14769 | -0.21294 | 215 ft | 14 kts | 258° |
| 2026-05-05 17:12 | 51.14729 | -0.21405 | 211 ft | 11 kts | 195° |
| 2026-05-05 17:12 | 51.14665 | -0.21370 | 214 ft | 9 kts | 138° |
| 2026-05-05 17:13 | 51.14603 | -0.21326 | 205 ft | 13 kts | 165° |
| 2026-05-05 17:13 | 51.14524 | -0.21235 | 212 ft | 15 kts | 117° |
| 2026-05-05 17:13 | 51.14530 | -0.21092 | 210 ft | 12 kts | 76° |
| 2026-05-05 17:13 | 51.14535 | -0.21061 | 210 ft | 0 kts | 77° |
| 2026-05-05 17:14 | 51.14569 | -0.20814 | 215 ft | 58 kts | 77° |
| 2026-05-05 17:14 | 51.14704 | -0.19838 | 211 ft | 119 kts | 78° |
| 2026-05-05 17:14 | 51.14909 | -0.18318 | 246 ft | 161 kts | 78° |
| 2026-05-05 17:15 | 51.15138 | -0.16514 | 851 ft | 165 kts | 77° |
| 2026-05-05 17:15 | 51.15377 | -0.14757 | 1667 ft | 160 kts | 77° |
| 2026-05-05 17:15 | 51.15620 | -0.12985 | 2153 ft | 173 kts | 76° |
| 2026-05-05 17:15 | 51.15904 | -0.11010 | 2489 ft | 191 kts | 75° |
| 2026-05-05 17:16 | 51.16205 | -0.08851 | 2844 ft | 211 kts | 81° |
| 2026-05-05 17:16 | 51.15885 | -0.06502 | 3372 ft | 229 kts | 123° |
| 2026-05-05 17:16 | 51.14600 | -0.04833 | 3816 ft | 255 kts | 155° |
| 2026-05-05 17:16 | 51.12864 | -0.03970 | 4418 ft | 271 kts | 167° |
| 2026-05-05 17:17 | 51.10989 | -0.03447 | 5253 ft | 276 kts | 171° |
| 2026-05-05 17:17 | 51.09058 | -0.02982 | 5837 ft | 282 kts | 169° |
| 2026-05-05 17:17 | 51.07124 | -0.02330 | 6630 ft | 284 kts | 166° |
| 2026-05-05 17:17 | 51.05205 | -0.01538 | 7476 ft | 286 kts | 164° |
| 2026-05-05 17:18 | 51.03301 | -0.00673 | 8268 ft | 290 kts | 163° |
| 2026-05-05 17:18 | 51.01329 | 0.00264 | 9103 ft | 295 kts | 163° |
| 2026-05-05 17:18 | 50.99385 | 0.01197 | 9935 ft | 296 kts | 163° |
| 2026-05-05 17:18 | 50.97408 | 0.02145 | 10717 ft | 298 kts | 163° |
| 2026-05-05 17:19 | 50.95419 | 0.03096 | 11467 ft | 300 kts | 163° |
| 2026-05-05 17:19 | 50.93418 | 0.04047 | 12211 ft | 302 kts | 162° |
| 2026-05-05 17:19 | 50.91379 | 0.05011 | 12947 ft | 305 kts | 162° |
| 2026-05-05 17:19 | 50.89334 | 0.05972 | 13645 ft | 310 kts | 162° |
| 2026-05-05 17:20 | 50.87137 | 0.06389 | 13786 ft | 334 kts | 181° |
| 2026-05-05 17:20 | 50.84734 | 0.06133 | 13911 ft | 356 kts | 182° |
| 2026-05-05 17:20 | 50.82328 | 0.05824 | 14036 ft | 374 kts | 184° |
| 2026-05-05 17:20 | 50.79693 | 0.05461 | 14433 ft | 382 kts | 184° |
| 2026-05-05 17:21 | 50.77025 | 0.05093 | 14993 ft | 386 kts | 184° |
| 2026-05-05 17:21 | 50.74327 | 0.04726 | 15531 ft | 391 kts | 184° |
| 2026-05-05 17:21 | 50.71603 | 0.04364 | 16058 ft | 395 kts | 183° |
| 2026-05-05 17:22 | 50.66092 | 0.03652 | 17134 ft | 402 kts | 184° |
| 2026-05-05 17:22 | 50.63277 | 0.03300 | 17679 ft | 405 kts | 184° |
| 2026-05-05 17:22 | 50.60443 | 0.02948 | 18194 ft | 409 kts | 184° |
| 2026-05-05 17:22 | 50.57629 | 0.02596 | 18619 ft | 413 kts | 184° |
| 2026-05-05 17:23 | 50.54757 | 0.02235 | 19097 ft | 415 kts | 184° |
| 2026-05-05 17:23 | 50.51873 | 0.01873 | 19599 ft | 416 kts | 184° |
| 2026-05-05 17:23 | 50.48972 | 0.01665 | 20023 ft | 419 kts | 177° |
| 2026-05-05 17:23 | 50.46127 | 0.02181 | 20438 ft | 421 kts | 167° |
| 2026-05-05 17:24 | 50.44033 | 0.03085 | 20758 ft | 422 kts | 159° |
| 2026-05-05 17:24 | 50.41463 | 0.04901 | 21180 ft | 423 kts | 149° |
| 2026-05-05 17:24 | 50.38985 | 0.07393 | 21649 ft | 424 kts | 145° |
| 2026-05-05 17:24 | 50.36517 | 0.09960 | 22090 ft | 426 kts | 146° |
| 2026-05-05 17:25 | 50.34048 | 0.12504 | 22513 ft | 429 kts | 146° |
| 2026-05-05 17:25 | 50.32394 | 0.14204 | 22778 ft | 431 kts | 146° |
| 2026-05-05 17:25 | 50.29029 | 0.17661 | 23275 ft | 435 kts | 145° |
| 2026-05-05 17:25 | 50.26489 | 0.20271 | 23603 ft | 438 kts | 146° |
| 2026-05-05 17:26 | 50.23937 | 0.22888 | 23962 ft | 439 kts | 146° |
| 2026-05-05 17:26 | 50.21369 | 0.25518 | 24352 ft | 439 kts | 146° |
| 2026-05-05 17:26 | 50.18808 | 0.28140 | 24757 ft | 440 kts | 146° |
| 2026-05-05 17:26 | 50.16252 | 0.30768 | 25167 ft | 440 kts | 146° |
| 2026-05-05 17:27 | 50.13695 | 0.33401 | 25522 ft | 441 kts | 146° |
| 2026-05-05 17:27 | 50.11134 | 0.36037 | 25875 ft | 442 kts | 146° |
| 2026-05-05 17:27 | 50.08594 | 0.38645 | 26204 ft | 443 kts | 146° |
| 2026-05-05 17:27 | 50.06014 | 0.41287 | 26530 ft | 444 kts | 146° |
| 2026-05-05 17:28 | 50.03428 | 0.43930 | 26854 ft | 445 kts | 146° |
| 2026-05-05 17:28 | 50.00841 | 0.46565 | 27167 ft | 445 kts | 147° |
| 2026-05-05 17:28 | 49.98251 | 0.49199 | 27565 ft | 444 kts | 147° |
| 2026-05-05 17:28 | 49.95670 | 0.51821 | 28023 ft | 441 kts | 146° |
| 2026-05-05 17:29 | 49.93101 | 0.54433 | 28371 ft | 441 kts | 146° |
| 2026-05-05 17:29 | 49.90539 | 0.57037 | 28812 ft | 438 kts | 146° |
| 2026-05-05 17:29 | 49.87990 | 0.59626 | 29233 ft | 437 kts | 146° |
| 2026-05-05 17:29 | 49.85589 | 0.62403 | 29620 ft | 435 kts | 139° |
| 2026-05-05 17:30 | 49.83449 | 0.65730 | 29874 ft | 438 kts | 132° |
| 2026-05-05 17:30 | 49.81405 | 0.69225 | 30180 ft | 437 kts | 132° |
| 2026-05-05 17:30 | 49.79365 | 0.72706 | 30542 ft | 435 kts | 133° |
| 2026-05-05 17:30 | 49.77331 | 0.76166 | 30899 ft | 433 kts | 133° |
| 2026-05-05 17:31 | 49.75292 | 0.79618 | 31156 ft | 434 kts | 133° |
| 2026-05-05 17:31 | 49.73258 | 0.83052 | 31494 ft | 433 kts | 132° |
| 2026-05-05 17:31 | 49.71221 | 0.86491 | 31791 ft | 433 kts | 132° |
| 2026-05-05 17:31 | 49.69210 | 0.89883 | 32069 ft | 433 kts | 132° |
| 2026-05-05 17:32 | 49.67167 | 0.93317 | 32365 ft | 432 kts | 132° |
| 2026-05-05 17:32 | 49.65132 | 0.96736 | 32698 ft | 431 kts | 132° |
| 2026-05-05 17:32 | 49.63105 | 1.00138 | 33025 ft | 430 kts | 132° |
| 2026-05-05 17:32 | 49.61076 | 1.03534 | 33355 ft | 429 kts | 132° |
| 2026-05-05 17:33 | 49.59078 | 1.06873 | 33680 ft | 428 kts | 132° |
| 2026-05-05 17:33 | 49.57065 | 1.10237 | 33991 ft | 427 kts | 132° |
| 2026-05-05 17:33 | 49.55040 | 1.13613 | 34244 ft | 426 kts | 132° |
| 2026-05-05 17:33 | 49.53024 | 1.16971 | 34469 ft | 427 kts | 133° |
| 2026-05-05 17:34 | 49.51006 | 1.20327 | 34681 ft | 428 kts | 132° |
| 2026-05-05 17:34 | 49.49002 | 1.23662 | 34826 ft | 429 kts | 132° |
| 2026-05-05 17:34 | 49.46964 | 1.27049 | 34862 ft | 432 kts | 133° |
| 2026-05-05 17:35 | 49.43134 | 1.33401 | 34866 ft | 433 kts | 133° |
| 2026-05-05 17:35 | 49.39116 | 1.40051 | 34861 ft | 432 kts | 133° |
| 2026-05-05 17:36 | 49.35117 | 1.46656 | 34862 ft | 432 kts | 133° |
| 2026-05-05 17:36 | 49.31067 | 1.53307 | 34861 ft | 432 kts | 133° |
| 2026-05-05 17:37 | 49.26985 | 1.60004 | 34859 ft | 432 kts | 133° |
| 2026-05-05 17:37 | 49.22884 | 1.66728 | 34853 ft | 432 kts | 133° |
| 2026-05-05 17:38 | 49.19466 | 1.72313 | 34850 ft | 432 kts | 133° |
| 2026-05-05 17:38 | 49.15336 | 1.79031 | 34835 ft | 432 kts | 133° |
| 2026-05-05 17:39 | 49.11235 | 1.85680 | 34842 ft | 431 kts | 133° |
| 2026-05-05 17:39 | 49.07113 | 1.92346 | 34834 ft | 431 kts | 133° |
| 2026-05-05 17:40 | 49.03137 | 1.98771 | 34833 ft | 431 kts | 133° |
| 2026-05-05 17:40 | 48.98986 | 2.05471 | 34828 ft | 442 kts | 133° |
| 2026-05-05 17:41 | 48.94708 | 2.12350 | 34841 ft | 453 kts | 133° |
| 2026-05-05 17:41 | 48.90402 | 2.19262 | 34828 ft | 447 kts | 133° |
| 2026-05-05 17:42 | 48.86916 | 2.24843 | 34836 ft | 434 kts | 133° |
| 2026-05-05 17:42 | 48.82769 | 2.31468 | 34838 ft | 431 kts | 133° |
| 2026-05-05 17:43 | 48.78630 | 2.38047 | 34836 ft | 431 kts | 133° |
| 2026-05-05 17:43 | 48.74490 | 2.44610 | 34842 ft | 431 kts | 133° |
| 2026-05-05 17:44 | 48.70349 | 2.51184 | 34834 ft | 431 kts | 133° |
| 2026-05-05 17:44 | 48.66253 | 2.57657 | 34804 ft | 430 kts | 133° |
| 2026-05-05 17:45 | 48.63062 | 2.62684 | 34790 ft | 431 kts | 134° |
| 2026-05-05 17:45 | 48.59043 | 2.69060 | 34790 ft | 432 kts | 130° |
| 2026-05-05 17:46 | 48.56007 | 2.76781 | 34790 ft | 434 kts | 110° |
| 2026-05-05 17:46 | 48.54878 | 2.85722 | 34792 ft | 436 kts | 94° |
| 2026-05-05 17:47 | 48.54594 | 2.94880 | 34784 ft | 437 kts | 94° |
| 2026-05-05 17:47 | 48.54277 | 3.04069 | 34783 ft | 438 kts | 94° |
| 2026-05-05 17:48 | 48.53944 | 3.13273 | 34780 ft | 440 kts | 94° |
| 2026-05-05 17:48 | 48.53614 | 3.22459 | 34782 ft | 441 kts | 94° |
| 2026-05-05 17:49 | 48.53279 | 3.31705 | 34788 ft | 442 kts | 94° |
| 2026-05-05 17:49 | 48.52940 | 3.40976 | 34787 ft | 442 kts | 94° |
| 2026-05-05 17:50 | 48.52594 | 3.50266 | 34780 ft | 443 kts | 95° |
| 2026-05-05 17:50 | 48.52234 | 3.59550 | 34783 ft | 444 kts | 95° |
| 2026-05-05 17:51 | 48.51863 | 3.68844 | 34784 ft | 444 kts | 95° |
| 2026-05-05 17:51 | 48.51485 | 3.78158 | 34789 ft | 445 kts | 95° |
| 2026-05-05 17:52 | 48.51105 | 3.87421 | 34793 ft | 445 kts | 95° |
| 2026-05-05 17:52 | 48.50711 | 3.96766 | 34795 ft | 445 kts | 95° |
| 2026-05-05 17:53 | 48.49802 | 4.05986 | 34796 ft | 443 kts | 107° |
| 2026-05-05 17:53 | 48.48159 | 4.14929 | 34795 ft | 443 kts | 107° |
| 2026-05-05 17:54 | 48.46549 | 4.23831 | 34798 ft | 443 kts | 107° |
| 2026-05-05 17:54 | 48.44917 | 4.32795 | 34786 ft | 443 kts | 107° |
| 2026-05-05 17:55 | 48.43261 | 4.41762 | 34783 ft | 444 kts | 107° |
| 2026-05-05 17:55 | 48.41591 | 4.50739 | 34786 ft | 445 kts | 107° |
| 2026-05-05 17:56 | 48.39930 | 4.59668 | 34788 ft | 446 kts | 107° |
| 2026-05-05 17:56 | 48.38253 | 4.68666 | 34797 ft | 446 kts | 107° |
| 2026-05-05 17:57 | 48.36563 | 4.77658 | 34786 ft | 447 kts | 108° |
| 2026-05-05 17:57 | 48.34860 | 4.86680 | 34796 ft | 448 kts | 108° |
| 2026-05-05 17:58 | 48.33160 | 4.95654 | 34798 ft | 448 kts | 108° |
| 2026-05-05 17:58 | 48.31440 | 5.04665 | 34808 ft | 449 kts | 108° |
| 2026-05-05 17:59 | 48.29710 | 5.13679 | 34812 ft | 449 kts | 108° |
| 2026-05-05 17:59 | 48.27952 | 5.22690 | 34808 ft | 449 kts | 109° |
| 2026-05-05 18:00 | 48.26145 | 5.31605 | 34813 ft | 449 kts | 109° |
| 2026-05-05 18:00 | 48.24319 | 5.40578 | 34818 ft | 449 kts | 109° |
| 2026-05-05 18:01 | 48.22503 | 5.49542 | 34826 ft | 449 kts | 109° |
| 2026-05-05 18:01 | 48.20682 | 5.58509 | 34809 ft | 450 kts | 109° |
| 2026-05-05 18:02 | 48.18849 | 5.67475 | 34819 ft | 450 kts | 109° |
| 2026-05-05 18:02 | 48.16996 | 5.76464 | 34821 ft | 451 kts | 109° |
| 2026-05-05 18:03 | 48.15253 | 5.84931 | 34828 ft | 451 kts | 109° |
| 2026-05-05 18:03 | 48.13359 | 5.94078 | 34834 ft | 452 kts | 110° |
| 2026-05-05 18:04 | 48.11496 | 6.03017 | 34829 ft | 452 kts | 110° |
| 2026-05-05 18:04 | 48.09611 | 6.12013 | 34833 ft | 452 kts | 110° |
| 2026-05-05 18:05 | 48.07724 | 6.21007 | 34842 ft | 452 kts | 110° |
| 2026-05-05 18:05 | 48.05840 | 6.29928 | 34848 ft | 452 kts | 110° |
| 2026-05-05 18:06 | 48.03942 | 6.38897 | 34839 ft | 453 kts | 110° |
| 2026-05-05 18:06 | 48.02030 | 6.47894 | 34841 ft | 454 kts | 110° |
| 2026-05-05 18:07 | 48.00192 | 6.56498 | 34847 ft | 455 kts | 110° |
| 2026-05-05 18:07 | 47.98278 | 6.65396 | 34849 ft | 456 kts | 111° |
| 2026-05-05 18:08 | 47.96159 | 6.74330 | 34853 ft | 455 kts | 114° |
| 2026-05-05 18:08 | 47.93738 | 6.83066 | 34836 ft | 455 kts | 116° |
| 2026-05-05 18:09 | 47.91276 | 6.91709 | 34854 ft | 455 kts | 116° |
| 2026-05-05 18:09 | 47.88865 | 7.00426 | 34851 ft | 455 kts | 115° |
| 2026-05-05 18:10 | 47.86509 | 7.09124 | 34848 ft | 455 kts | 115° |
| 2026-05-05 18:10 | 47.84139 | 7.17862 | 34847 ft | 455 kts | 115° |
| 2026-05-05 18:11 | 47.81732 | 7.26608 | 34831 ft | 455 kts | 116° |
| 2026-05-05 18:11 | 47.79325 | 7.35257 | 34838 ft | 455 kts | 116° |
| 2026-05-05 18:12 | 47.76898 | 7.43965 | 34854 ft | 456 kts | 116° |
| 2026-05-05 18:12 | 47.74449 | 7.52670 | 34852 ft | 455 kts | 119° |
| 2026-05-05 18:13 | 47.71066 | 7.60509 | 34836 ft | 449 kts | 130° |
| 2026-05-05 18:13 | 47.67348 | 7.67963 | 34847 ft | 450 kts | 130° |
| 2026-05-05 18:14 | 47.63629 | 7.75438 | 34839 ft | 450 kts | 130° |
| 2026-05-05 18:14 | 47.59915 | 7.82911 | 34851 ft | 450 kts | 130° |
| 2026-05-05 18:15 | 47.56214 | 7.90326 | 34867 ft | 450 kts | 130° |
| 2026-05-05 18:15 | 47.52480 | 7.97783 | 34862 ft | 450 kts | 130° |
| 2026-05-05 18:16 | 47.48741 | 8.05228 | 34867 ft | 451 kts | 131° |
| 2026-05-05 18:16 | 47.44998 | 8.12654 | 34870 ft | 452 kts | 131° |
| 2026-05-05 18:17 | 47.41226 | 8.20106 | 34880 ft | 453 kts | 131° |
| 2026-05-05 18:17 | 47.37442 | 8.27569 | 34882 ft | 453 kts | 131° |
| 2026-05-05 18:18 | 47.33662 | 8.35021 | 34865 ft | 454 kts | 131° |
| 2026-05-05 18:18 | 47.29854 | 8.42369 | 34877 ft | 451 kts | 136° |
| 2026-05-05 18:18 | 47.27609 | 8.45533 | 34884 ft | 444 kts | 147° |
| 2026-05-05 18:19 | 47.25060 | 8.48027 | 34885 ft | 437 kts | 157° |
| 2026-05-05 18:19 | 47.19842 | 8.50775 | 34888 ft | 427 kts | 174° |
| 2026-05-05 18:20 | 47.13958 | 8.51736 | 34896 ft | 425 kts | 178° |
| 2026-05-05 18:20 | 47.08387 | 8.52552 | 34899 ft | 426 kts | 178° |
| 2026-05-05 18:21 | 47.02529 | 8.53407 | 34903 ft | 426 kts | 179° |
| 2026-05-05 18:21 | 46.96603 | 8.54267 | 34918 ft | 426 kts | 179° |
| 2026-05-05 18:22 | 46.90704 | 8.55118 | 34923 ft | 426 kts | 179° |
| 2026-05-05 18:22 | 46.84800 | 8.55972 | 34943 ft | 426 kts | 179° |
| 2026-05-05 18:23 | 46.78906 | 8.56822 | 34969 ft | 425 kts | 179° |
| 2026-05-05 18:23 | 46.74019 | 8.57517 | 34960 ft | 424 kts | 180° |
| 2026-05-05 18:24 | 46.68150 | 8.58346 | 34976 ft | 423 kts | 180° |
| 2026-05-05 18:24 | 46.61350 | 8.59320 | 34995 ft | 421 kts | 180° |
| 2026-05-05 18:25 | 46.56465 | 8.60016 | 35012 ft | 420 kts | 180° |
| 2026-05-05 18:25 | 46.50654 | 8.60833 | 35007 ft | 418 kts | 180° |
| 2026-05-05 18:26 | 46.44883 | 8.61643 | 35013 ft | 418 kts | 180° |
| 2026-05-05 18:26 | 46.39095 | 8.62482 | 35018 ft | 418 kts | 180° |
| 2026-05-05 18:27 | 46.33311 | 8.63304 | 35011 ft | 417 kts | 180° |
| 2026-05-05 18:27 | 46.27516 | 8.64107 | 35003 ft | 417 kts | 180° |
| 2026-05-05 18:28 | 46.18881 | 8.65311 | 35003 ft | 417 kts | 181° |
| 2026-05-05 18:28 | 46.13165 | 8.67153 | 35009 ft | 432 kts | 162° |
| 2026-05-05 18:29 | 46.10535 | 8.69374 | 35009 ft | 444 kts | 150° |
| 2026-05-05 18:29 | 46.08251 | 8.72470 | 35009 ft | 458 kts | 137° |
| 2026-05-05 18:29 | 46.06464 | 8.76273 | 34976 ft | 469 kts | 127° |
| 2026-05-05 18:29 | 46.06130 | 8.77109 | 34975 ft | 469 kts | 127° |
| 2026-05-05 18:30 | 46.05597 | 8.78118 | 34976 ft | 0 kts | 127° |
| 2026-05-05 18:31 | 46.04001 | 8.81295 | 35013 ft | 465 kts | 132° |
| 2026-05-05 18:31 | 46.02293 | 8.85282 | 34995 ft | 471 kts | 128° |
| 2026-05-05 18:32 | 45.99202 | 8.93650 | 34992 ft | 474 kts | 125° |
| 2026-05-05 18:32 | 45.96108 | 9.01961 | 34990 ft | 473 kts | 127° |
| 2026-05-05 18:33 | 45.92804 | 9.10142 | 34985 ft | 472 kts | 128° |
| 2026-05-05 18:33 | 45.89415 | 9.18223 | 34973 ft | 472 kts | 128° |
| 2026-05-05 18:34 | 45.86040 | 9.26311 | 34977 ft | 472 kts | 128° |
| 2026-05-05 18:34 | 45.82717 | 9.34385 | 34990 ft | 472 kts | 128° |
| 2026-05-05 18:35 | 45.79382 | 9.42512 | 34933 ft | 469 kts | 128° |
| 2026-05-05 18:35 | 45.77739 | 9.46504 | 34651 ft | 459 kts | 128° |
| 2026-05-05 18:35 | 45.76128 | 9.50404 | 34411 ft | 450 kts | 129° |
| 2026-05-05 18:36 | 45.74529 | 9.54245 | 33745 ft | 452 kts | 130° |
| 2026-05-05 18:36 | 45.72924 | 9.58066 | 33215 ft | 449 kts | 129° |
| 2026-05-05 18:36 | 45.71332 | 9.61872 | 32731 ft | 440 kts | 129° |
| 2026-05-05 18:36 | 45.69773 | 9.65612 | 31956 ft | 434 kts | 129° |
| 2026-05-05 18:37 | 45.68233 | 9.69306 | 31188 ft | 428 kts | 129° |
| 2026-05-05 18:37 | 45.66735 | 9.72968 | 30454 ft | 425 kts | 124° |
| 2026-05-05 18:37 | 45.65623 | 9.76897 | 29665 ft | 429 kts | 112° |
| 2026-05-05 18:37 | 45.65072 | 9.81089 | 28831 ft | 431 kts | 99° |
| 2026-05-05 18:38 | 45.65012 | 9.85377 | 27945 ft | 429 kts | 95° |
| 2026-05-05 18:38 | 45.65009 | 9.89623 | 27163 ft | 424 kts | 95° |
| 2026-05-05 18:38 | 45.65004 | 9.93766 | 26430 ft | 419 kts | 95° |
| 2026-05-05 18:38 | 45.64993 | 9.97902 | 25713 ft | 412 kts | 95° |
| 2026-05-05 18:39 | 45.64974 | 10.01971 | 24998 ft | 407 kts | 95° |
| 2026-05-05 18:39 | 45.64951 | 10.05986 | 24315 ft | 401 kts | 95° |
| 2026-05-05 18:39 | 45.64928 | 10.09943 | 23626 ft | 395 kts | 95° |
| 2026-05-05 18:39 | 45.64905 | 10.13852 | 22883 ft | 390 kts | 95° |
| 2026-05-05 18:40 | 45.64893 | 10.17710 | 22157 ft | 385 kts | 95° |
| 2026-05-05 18:40 | 45.64890 | 10.21523 | 21420 ft | 381 kts | 94° |
| 2026-05-05 18:40 | 45.64890 | 10.25293 | 20704 ft | 377 kts | 94° |
| 2026-05-05 18:40 | 45.64885 | 10.29024 | 20037 ft | 373 kts | 94° |
| 2026-05-05 18:41 | 45.64875 | 10.32713 | 19394 ft | 369 kts | 94° |
| 2026-05-05 18:41 | 45.64688 | 10.36316 | 18767 ft | 358 kts | 107° |
| 2026-05-05 18:41 | 45.63966 | 10.39609 | 18130 ft | 346 kts | 120° |
| 2026-05-05 18:41 | 45.62758 | 10.42528 | 17390 ft | 335 kts | 134° |
| 2026-05-05 18:42 | 45.61180 | 10.44889 | 16862 ft | 320 kts | 146° |
| 2026-05-05 18:42 | 45.59385 | 10.46639 | 16482 ft | 304 kts | 156° |
| 2026-05-05 18:42 | 45.57557 | 10.48106 | 16115 ft | 300 kts | 156° |
| 2026-05-05 18:42 | 45.55754 | 10.49556 | 15742 ft | 301 kts | 156° |
| 2026-05-05 18:43 | 45.53930 | 10.51023 | 15359 ft | 302 kts | 156° |
| 2026-05-05 18:43 | 45.52087 | 10.52504 | 14961 ft | 303 kts | 155° |
| 2026-05-05 18:43 | 45.50242 | 10.53985 | 14563 ft | 305 kts | 155° |
| 2026-05-05 18:43 | 45.48385 | 10.55478 | 14143 ft | 308 kts | 155° |
| 2026-05-05 18:44 | 45.46507 | 10.56986 | 13710 ft | 310 kts | 155° |
| 2026-05-05 18:44 | 45.44639 | 10.58482 | 13369 ft | 308 kts | 155° |
| 2026-05-05 18:44 | 45.42760 | 10.59985 | 12957 ft | 308 kts | 155° |
| 2026-05-05 18:44 | 45.40905 | 10.61470 | 12639 ft | 304 kts | 155° |
| 2026-05-05 18:45 | 45.39074 | 10.62933 | 12002 ft | 300 kts | 156° |
| 2026-05-05 18:45 | 45.37134 | 10.63894 | 11373 ft | 291 kts | 176° |
| 2026-05-05 18:45 | 45.35155 | 10.63795 | 10882 ft | 281 kts | 195° |
| 2026-05-05 18:45 | 45.33376 | 10.62764 | 10288 ft | 278 kts | 215° |
| 2026-05-05 18:46 | 45.31942 | 10.60968 | 9804 ft | 272 kts | 227° |
| 2026-05-05 18:46 | 45.30639 | 10.59033 | 9106 ft | 271 kts | 227° |
| 2026-05-05 18:46 | 45.29327 | 10.57107 | 8383 ft | 270 kts | 226° |
| 2026-05-05 18:46 | 45.28040 | 10.55250 | 8055 ft | 255 kts | 226° |
| 2026-05-05 18:47 | 45.26659 | 10.53852 | 7903 ft | 237 kts | 200° |
| 2026-05-05 18:47 | 45.25045 | 10.53734 | 7719 ft | 243 kts | 169° |
| 2026-05-05 18:47 | 45.23551 | 10.54970 | 7191 ft | 257 kts | 143° |
| 2026-05-05 18:47 | 45.22234 | 10.56705 | 6867 ft | 258 kts | 139° |
| 2026-05-05 18:48 | 45.21071 | 10.58647 | 6569 ft | 261 kts | 119° |
| 2026-05-05 18:48 | 45.20772 | 10.61177 | 6259 ft | 265 kts | 82° |
| 2026-05-05 18:48 | 45.21485 | 10.63549 | 5672 ft | 264 kts | 54° |
| 2026-05-05 18:48 | 45.22705 | 10.65501 | 4996 ft | 264 kts | 42° |
| 2026-05-05 18:49 | 45.24218 | 10.66953 | 4332 ft | 262 kts | 30° |
| 2026-05-05 18:49 | 45.25596 | 10.68501 | 3932 ft | 250 kts | 45° |
| 2026-05-05 18:49 | 45.26765 | 10.70252 | 3594 ft | 238 kts | 47° |
| 2026-05-05 18:49 | 45.27886 | 10.71914 | 3291 ft | 227 kts | 46° |
| 2026-05-05 18:50 | 45.28965 | 10.73480 | 2981 ft | 216 kts | 46° |
| 2026-05-05 18:50 | 45.29982 | 10.74949 | 2732 ft | 200 kts | 46° |
| 2026-05-05 18:50 | 45.30927 | 10.76315 | 2452 ft | 187 kts | 47° |
| 2026-05-05 18:50 | 45.31803 | 10.77582 | 2218 ft | 172 kts | 47° |
| 2026-05-05 18:51 | 45.32592 | 10.78724 | 1994 ft | 153 kts | 47° |
| 2026-05-05 18:51 | 45.33313 | 10.79770 | 1793 ft | 144 kts | 48° |
| 2026-05-05 18:51 | 45.34003 | 10.80770 | 1600 ft | 140 kts | 48° |
| 2026-05-05 18:51 | 45.34683 | 10.81756 | 1412 ft | 138 kts | 48° |
| 2026-05-05 18:52 | 45.35347 | 10.82719 | 1226 ft | 138 kts | 47° |
| 2026-05-05 18:52 | 45.36018 | 10.83693 | 1037 ft | 138 kts | 47° |
| 2026-05-05 18:52 | 45.36692 | 10.84671 | 844 ft | 138 kts | 47° |
| 2026-05-05 18:52 | 45.37367 | 10.85650 | 665 ft | 137 kts | 47° |
| 2026-05-05 18:53 | 45.38039 | 10.86627 | 483 ft | 138 kts | 46° |
| 2026-05-05 18:53 | 45.38700 | 10.87594 | 309 ft | 138 kts | 46° |
| 2026-05-05 18:53 | 45.39341 | 10.88529 | 238 ft | 119 kts | 44° |
| 2026-05-05 18:53 | 45.39644 | 10.88954 | 243 ft | 26 kts | 47° |
| 2026-05-05 18:54 | 45.39770 | 10.89146 | 241 ft | 27 kts | 46° |
| 2026-05-05 18:54 | 45.39901 | 10.89334 | 241 ft | 26 kts | 45° |
| 2026-05-05 18:54 | 45.40021 | 10.89512 | 246 ft | 24 kts | 46° |
| 2026-05-05 18:54 | 45.40137 | 10.89679 | 250 ft | 23 kts | 45° |
| 2026-05-05 18:55 | 45.40241 | 10.89830 | 249 ft | 15 kts | 48° |
| 2026-05-05 18:55 | 45.40284 | 10.89965 | 250 ft | 15 kts | 75° |
| 2026-05-05 18:55 | 45.40312 | 10.90116 | 247 ft | 18 kts | 76° |
| 2026-05-05 18:55 | 45.40346 | 10.90294 | 245 ft | 12 kts | 64° |
| 2026-05-05 18:56 | 45.40343 | 10.90366 | 245 ft | 7 kts | 122° |
| 2026-05-05 18:56 | 45.40307 | 10.90422 | 243 ft | 8 kts | 136° |
| 2026-05-05 18:56 | 45.40269 | 10.90474 | 243 ft | 7 kts | 136° |
| 2026-05-05 18:56 | 45.40241 | 10.90511 | 242 ft | 0 kts | 137° |